sensor_id;sensor_type;location;lat;lon;timestamp;temperature;humidity
29413;DHT22;16389;50.126;8.450;2023-04-25T00:01:11;8.30;99.90
29413;DHT22;16389;50.126;8.450;2023-04-25T00:03:38;8.30;99.90
29413;DHT22;16389;50.126;8.450;2023-04-25T00:06:05;8.30;99.90
29413;DHT22;16389;50.126;8.450;2023-04-25T00:08:32;8.20;99.90
29413;DHT22;16389;50.126;8.450;2023-04-25T00:10:58;8.20;99.90
29413;DHT22;16389;50.126;8.450;2023-04-25T00:13:24;8.20;99.90
29413;DHT22;16389;50.126;8.450;2023-04-25T00:15:51;8.10;99.90
29413;DHT22;16389;50.126;8.450;2023-04-25T00:18:16;8.10;99.90
29413;DHT22;16389;50.126;8.450;2023-04-25T00:20:43;8.20;99.90
29413;DHT22;16389;50.126;8.450;2023-04-25T00:23:12;8.00;99.90
29413;DHT22;16389;50.126;8.450;2023-04-25T00:25:45;8.10;99.90
29413;DHT22;16389;50.126;8.450;2023-04-25T00:28:12;8.10;99.90
29413;DHT22;16389;50.126;8.450;2023-04-25T00:30:39;8.00;99.90
29413;DHT22;16389;50.126;8.450;2023-04-25T00:33:05;8.10;99.90
29413;DHT22;16389;50.126;8.450;2023-04-25T00:35:31;8.00;99.90
29413;DHT22;16389;50.126;8.450;2023-04-25T00:37:56;8.00;99.90
29413;DHT22;16389;50.126;8.450;2023-04-25T00:40:22;8.00;99.90
29413;DHT22;16389;50.126;8.450;2023-04-25T00:42:48;7.90;99.90
29413;DHT22;16389;50.126;8.450;2023-04-25T00:45:15;8.00;99.90
29413;DHT22;16389;50.126;8.450;2023-04-25T00:47:41;7.90;99.90
29413;DHT22;16389;50.126;8.450;2023-04-25T00:50:08;7.90;99.90
29413;DHT22;16389;50.126;8.450;2023-04-25T00:52:34;7.90;99.90
29413;DHT22;16389;50.126;8.450;2023-04-25T00:55:00;7.80;99.90
29413;DHT22;16389;50.126;8.450;2023-04-25T00:57:26;7.90;99.90
29413;DHT22;16389;50.126;8.450;2023-04-25T00:59:52;7.90;99.90
29413;DHT22;16389;50.126;8.450;2023-04-25T01:02:18;7.90;99.90
29413;DHT22;16389;50.126;8.450;2023-04-25T01:04:44;7.90;99.90
29413;DHT22;16389;50.126;8.450;2023-04-25T01:07:10;7.90;99.90
29413;DHT22;16389;50.126;8.450;2023-04-25T01:09:36;7.90;99.90
29413;DHT22;16389;50.126;8.450;2023-04-25T01:12:02;7.90;99.90
29413;DHT22;16389;50.126;8.450;2023-04-25T01:14:28;7.90;99.90
29413;DHT22;16389;50.126;8.450;2023-04-25T01:16:55;7.90;99.90
29413;DHT22;16389;50.126;8.450;2023-04-25T01:19:20;7.80;99.90
29413;DHT22;16389;50.126;8.450;2023-04-25T01:21:46;8.00;99.90
29413;DHT22;16389;50.126;8.450;2023-04-25T01:24:12;7.90;99.90
29413;DHT22;16389;50.126;8.450;2023-04-25T01:26:40;7.90;99.90
29413;DHT22;16389;50.126;8.450;2023-04-25T01:29:09;7.80;99.90
29413;DHT22;16389;50.126;8.450;2023-04-25T01:31:36;7.80;99.90
29413;DHT22;16389;50.126;8.450;2023-04-25T01:34:02;7.80;99.90
29413;DHT22;16389;50.126;8.450;2023-04-25T01:36:28;7.80;99.90
29413;DHT22;16389;50.126;8.450;2023-04-25T01:38:54;7.70;99.90
29413;DHT22;16389;50.126;8.450;2023-04-25T01:41:20;7.70;99.90
29413;DHT22;16389;50.126;8.450;2023-04-25T01:43:48;7.60;99.90
29413;DHT22;16389;50.126;8.450;2023-04-25T01:46:14;7.60;99.90
29413;DHT22;16389;50.126;8.450;2023-04-25T01:48:39;7.70;99.90
29413;DHT22;16389;50.126;8.450;2023-04-25T01:51:05;7.60;99.90
29413;DHT22;16389;50.126;8.450;2023-04-25T01:53:31;7.60;99.90
29413;DHT22;16389;50.126;8.450;2023-04-25T01:55:57;7.50;99.90
29413;DHT22;16389;50.126;8.450;2023-04-25T01:58:23;7.60;99.90
29413;DHT22;16389;50.126;8.450;2023-04-25T02:00:48;7.50;99.90
29413;DHT22;16389;50.126;8.450;2023-04-25T02:03:14;7.60;99.90
29413;DHT22;16389;50.126;8.450;2023-04-25T02:05:40;7.40;99.90
29413;DHT22;16389;50.126;8.450;2023-04-25T02:08:07;7.50;99.90
29413;DHT22;16389;50.126;8.450;2023-04-25T02:10:33;7.50;99.90
29413;DHT22;16389;50.126;8.450;2023-04-25T02:12:58;7.50;99.90
29413;DHT22;16389;50.126;8.450;2023-04-25T02:15:24;7.60;99.90
29413;DHT22;16389;50.126;8.450;2023-04-25T02:17:50;7.60;99.90
29413;DHT22;16389;50.126;8.450;2023-04-25T02:20:18;7.60;99.90
29413;DHT22;16389;50.126;8.450;2023-04-25T02:22:45;7.60;99.90
29413;DHT22;16389;50.126;8.450;2023-04-25T02:25:11;7.60;99.90
29413;DHT22;16389;50.126;8.450;2023-04-25T02:27:37;7.50;99.90
29413;DHT22;16389;50.126;8.450;2023-04-25T02:30:04;7.60;99.90
29413;DHT22;16389;50.126;8.450;2023-04-25T02:32:30;7.60;99.90
29413;DHT22;16389;50.126;8.450;2023-04-25T02:34:56;7.50;99.90
29413;DHT22;16389;50.126;8.450;2023-04-25T02:37:24;7.50;99.90
29413;DHT22;16389;50.126;8.450;2023-04-25T02:39:50;7.50;99.90
29413;DHT22;16389;50.126;8.450;2023-04-25T02:42:15;7.50;99.90
29413;DHT22;16389;50.126;8.450;2023-04-25T02:44:41;7.50;99.90
29413;DHT22;16389;50.126;8.450;2023-04-25T02:47:07;7.40;99.90
29413;DHT22;16389;50.126;8.450;2023-04-25T02:49:32;7.50;99.90
29413;DHT22;16389;50.126;8.450;2023-04-25T02:51:58;7.50;99.90
29413;DHT22;16389;50.126;8.450;2023-04-25T02:54:23;7.50;99.90
29413;DHT22;16389;50.126;8.450;2023-04-25T02:56:49;7.40;99.90
29413;DHT22;16389;50.126;8.450;2023-04-25T02:59:15;7.40;99.90
29413;DHT22;16389;50.126;8.450;2023-04-25T03:01:41;7.40;99.90
29413;DHT22;16389;50.126;8.450;2023-04-25T03:04:06;7.30;99.90
29413;DHT22;16389;50.126;8.450;2023-04-25T03:06:32;7.20;99.90
29413;DHT22;16389;50.126;8.450;2023-04-25T03:08:57;7.30;99.90
29413;DHT22;16389;50.126;8.450;2023-04-25T03:11:25;7.20;99.90
29413;DHT22;16389;50.126;8.450;2023-04-25T03:13:51;7.20;99.90
29413;DHT22;16389;50.126;8.450;2023-04-25T03:16:19;7.20;99.90
29413;DHT22;16389;50.126;8.450;2023-04-25T03:18:46;7.20;99.90
29413;DHT22;16389;50.126;8.450;2023-04-25T03:21:11;7.20;99.90
29413;DHT22;16389;50.126;8.450;2023-04-25T03:23:37;7.20;99.90
29413;DHT22;16389;50.126;8.450;2023-04-25T03:26:03;7.10;99.90
29413;DHT22;16389;50.126;8.450;2023-04-25T03:28:28;7.10;99.90
29413;DHT22;16389;50.126;8.450;2023-04-25T03:30:54;7.00;99.90
29413;DHT22;16389;50.126;8.450;2023-04-25T03:33:20;7.00;99.90
29413;DHT22;16389;50.126;8.450;2023-04-25T03:35:45;7.10;99.90
29413;DHT22;16389;50.126;8.450;2023-04-25T03:38:11;7.00;99.90
29413;DHT22;16389;50.126;8.450;2023-04-25T03:40:37;7.00;99.90
29413;DHT22;16389;50.126;8.450;2023-04-25T03:43:02;6.90;99.90
29413;DHT22;16389;50.126;8.450;2023-04-25T03:45:28;6.90;99.90
29413;DHT22;16389;50.126;8.450;2023-04-25T03:47:54;6.80;99.90
29413;DHT22;16389;50.126;8.450;2023-04-25T03:50:19;6.80;99.90
29413;DHT22;16389;50.126;8.450;2023-04-25T03:52:45;6.60;99.90
29413;DHT22;16389;50.126;8.450;2023-04-25T03:55:11;6.60;99.90
29413;DHT22;16389;50.126;8.450;2023-04-25T03:57:36;6.50;99.90
29413;DHT22;16389;50.126;8.450;2023-04-25T04:00:03;6.40;99.90
29413;DHT22;16389;50.126;8.450;2023-04-25T04:02:29;6.30;99.90
29413;DHT22;16389;50.126;8.450;2023-04-25T04:04:55;6.30;99.90
29413;DHT22;16389;50.126;8.450;2023-04-25T04:07:22;6.30;99.90
29413;DHT22;16389;50.126;8.450;2023-04-25T04:09:47;6.20;99.90
29413;DHT22;16389;50.126;8.450;2023-04-25T04:12:13;6.20;99.90
29413;DHT22;16389;50.126;8.450;2023-04-25T04:14:40;6.20;99.90
29413;DHT22;16389;50.126;8.450;2023-04-25T04:17:06;6.30;99.90
29413;DHT22;16389;50.126;8.450;2023-04-25T04:19:32;6.30;99.90
29413;DHT22;16389;50.126;8.450;2023-04-25T04:21:57;6.30;99.90
29413;DHT22;16389;50.126;8.450;2023-04-25T04:24:23;6.30;99.90
29413;DHT22;16389;50.126;8.450;2023-04-25T04:26:49;6.30;99.90
29413;DHT22;16389;50.126;8.450;2023-04-25T04:29:16;6.30;99.90
29413;DHT22;16389;50.126;8.450;2023-04-25T04:31:49;6.40;99.90
29413;DHT22;16389;50.126;8.450;2023-04-25T04:34:15;6.30;99.90
29413;DHT22;16389;50.126;8.450;2023-04-25T04:36:42;6.30;99.90
29413;DHT22;16389;50.126;8.450;2023-04-25T04:39:07;6.30;99.90
29413;DHT22;16389;50.126;8.450;2023-04-25T04:41:34;6.30;99.90
29413;DHT22;16389;50.126;8.450;2023-04-25T04:44:00;6.30;99.90
29413;DHT22;16389;50.126;8.450;2023-04-25T04:46:27;6.30;99.90
29413;DHT22;16389;50.126;8.450;2023-04-25T04:48:53;6.30;99.90
29413;DHT22;16389;50.126;8.450;2023-04-25T04:51:19;6.30;99.90
29413;DHT22;16389;50.126;8.450;2023-04-25T04:53:46;6.30;99.90
29413;DHT22;16389;50.126;8.450;2023-04-25T04:56:11;6.40;99.90
29413;DHT22;16389;50.126;8.450;2023-04-25T04:58:37;6.40;99.90
29413;DHT22;16389;50.126;8.450;2023-04-25T05:01:02;6.40;99.90
29413;DHT22;16389;50.126;8.450;2023-04-25T05:03:28;6.50;99.90
29413;DHT22;16389;50.126;8.450;2023-04-25T05:05:54;6.50;99.90
29413;DHT22;16389;50.126;8.450;2023-04-25T05:08:20;6.50;99.90
29413;DHT22;16389;50.126;8.450;2023-04-25T05:10:46;6.60;99.90
29413;DHT22;16389;50.126;8.450;2023-04-25T05:13:11;6.60;99.90
29413;DHT22;16389;50.126;8.450;2023-04-25T05:15:37;6.60;99.90
29413;DHT22;16389;50.126;8.450;2023-04-25T05:18:03;6.70;99.90
29413;DHT22;16389;50.126;8.450;2023-04-25T05:20:29;6.70;99.90
29413;DHT22;16389;50.126;8.450;2023-04-25T05:22:54;6.70;99.90
29413;DHT22;16389;50.126;8.450;2023-04-25T05:25:20;6.80;99.90
29413;DHT22;16389;50.126;8.450;2023-04-25T05:27:46;6.90;99.90
29413;DHT22;16389;50.126;8.450;2023-04-25T05:30:12;6.90;99.90
29413;DHT22;16389;50.126;8.450;2023-04-25T05:32:37;7.00;99.90
29413;DHT22;16389;50.126;8.450;2023-04-25T05:35:03;7.00;99.90
29413;DHT22;16389;50.126;8.450;2023-04-25T05:37:29;7.00;99.90
29413;DHT22;16389;50.126;8.450;2023-04-25T05:39:56;7.00;99.90
29413;DHT22;16389;50.126;8.450;2023-04-25T05:42:22;7.20;99.90
29413;DHT22;16389;50.126;8.450;2023-04-25T05:44:47;7.20;99.90
29413;DHT22;16389;50.126;8.450;2023-04-25T05:47:13;7.20;99.90
29413;DHT22;16389;50.126;8.450;2023-04-25T05:49:39;7.20;99.90
29413;DHT22;16389;50.126;8.450;2023-04-25T05:52:04;7.10;99.90
29413;DHT22;16389;50.126;8.450;2023-04-25T05:54:30;7.10;99.90
29413;DHT22;16389;50.126;8.450;2023-04-25T05:56:58;7.20;99.90
29413;DHT22;16389;50.126;8.450;2023-04-25T05:59:24;7.30;99.90
29413;DHT22;16389;50.126;8.450;2023-04-25T06:01:50;7.40;99.90
29413;DHT22;16389;50.126;8.450;2023-04-25T06:04:17;7.50;99.90
29413;DHT22;16389;50.126;8.450;2023-04-25T06:06:42;7.60;99.90
29413;DHT22;16389;50.126;8.450;2023-04-25T06:09:08;7.70;99.90
29413;DHT22;16389;50.126;8.450;2023-04-25T06:11:34;7.80;99.90
29413;DHT22;16389;50.126;8.450;2023-04-25T06:14:03;7.80;99.90
29413;DHT22;16389;50.126;8.450;2023-04-25T06:16:28;7.90;99.90
29413;DHT22;16389;50.126;8.450;2023-04-25T06:18:54;7.80;99.90
29413;DHT22;16389;50.126;8.450;2023-04-25T06:21:19;7.80;99.90
29413;DHT22;16389;50.126;8.450;2023-04-25T06:23:45;7.60;99.90
29413;DHT22;16389;50.126;8.450;2023-04-25T06:26:11;7.70;99.90
29413;DHT22;16389;50.126;8.450;2023-04-25T06:28:36;7.70;99.90
29413;DHT22;16389;50.126;8.450;2023-04-25T06:31:02;7.80;99.90
29413;DHT22;16389;50.126;8.450;2023-04-25T06:33:28;8.00;99.90
29413;DHT22;16389;50.126;8.450;2023-04-25T06:35:54;8.10;99.90
29413;DHT22;16389;50.126;8.450;2023-04-25T06:38:19;8.30;99.90
29413;DHT22;16389;50.126;8.450;2023-04-25T06:40:45;8.30;99.90
29413;DHT22;16389;50.126;8.450;2023-04-25T06:43:11;8.50;99.90
29413;DHT22;16389;50.126;8.450;2023-04-25T06:45:36;8.50;99.90
29413;DHT22;16389;50.126;8.450;2023-04-25T06:48:02;8.50;99.90
29413;DHT22;16389;50.126;8.450;2023-04-25T06:50:28;8.50;99.90
29413;DHT22;16389;50.126;8.450;2023-04-25T06:52:53;8.40;99.90
29413;DHT22;16389;50.126;8.450;2023-04-25T06:55:19;8.40;99.90
29413;DHT22;16389;50.126;8.450;2023-04-25T06:57:45;8.40;99.90
29413;DHT22;16389;50.126;8.450;2023-04-25T07:00:11;8.50;99.90
29413;DHT22;16389;50.126;8.450;2023-04-25T07:02:37;8.60;99.90
29413;DHT22;16389;50.126;8.450;2023-04-25T07:05:03;8.60;99.90
29413;DHT22;16389;50.126;8.450;2023-04-25T07:07:30;8.60;99.90
29413;DHT22;16389;50.126;8.450;2023-04-25T07:09:56;8.70;99.90
29413;DHT22;16389;50.126;8.450;2023-04-25T07:12:22;8.90;99.90
29413;DHT22;16389;50.126;8.450;2023-04-25T07:14:47;9.00;99.90
29413;DHT22;16389;50.126;8.450;2023-04-25T07:17:13;9.10;99.90
29413;DHT22;16389;50.126;8.450;2023-04-25T07:19:38;9.20;99.90
29413;DHT22;16389;50.126;8.450;2023-04-25T07:22:06;9.20;99.90
29413;DHT22;16389;50.126;8.450;2023-04-25T07:24:32;9.20;99.90
29413;DHT22;16389;50.126;8.450;2023-04-25T07:26:57;9.20;99.90
29413;DHT22;16389;50.126;8.450;2023-04-25T07:29:23;9.40;99.90
29413;DHT22;16389;50.126;8.450;2023-04-25T07:31:49;9.50;99.90
29413;DHT22;16389;50.126;8.450;2023-04-25T07:34:15;9.80;99.90
29413;DHT22;16389;50.126;8.450;2023-04-25T07:36:41;10.00;99.90
29413;DHT22;16389;50.126;8.450;2023-04-25T07:39:07;10.10;99.90
29413;DHT22;16389;50.126;8.450;2023-04-25T07:41:34;10.40;99.90
29413;DHT22;16389;50.126;8.450;2023-04-25T07:44:00;10.20;99.90
29413;DHT22;16389;50.126;8.450;2023-04-25T07:46:25;10.20;99.90
29413;DHT22;16389;50.126;8.450;2023-04-25T07:48:51;10.10;99.90
29413;DHT22;16389;50.126;8.450;2023-04-25T07:51:17;10.00;99.90
29413;DHT22;16389;50.126;8.450;2023-04-25T07:53:45;9.90;99.90
29413;DHT22;16389;50.126;8.450;2023-04-25T07:56:11;10.00;99.90
29413;DHT22;16389;50.126;8.450;2023-04-25T07:58:37;10.10;99.90
29413;DHT22;16389;50.126;8.450;2023-04-25T08:01:03;9.80;99.90
29413;DHT22;16389;50.126;8.450;2023-04-25T08:03:28;9.60;99.90
29413;DHT22;16389;50.126;8.450;2023-04-25T08:05:54;9.60;99.90
29413;DHT22;16389;50.126;8.450;2023-04-25T08:08:20;9.60;99.90
29413;DHT22;16389;50.126;8.450;2023-04-25T08:10:46;10.00;99.90
29413;DHT22;16389;50.126;8.450;2023-04-25T08:13:13;10.30;99.90
29413;DHT22;16389;50.126;8.450;2023-04-25T08:15:39;10.50;99.90
29413;DHT22;16389;50.126;8.450;2023-04-25T08:18:04;10.80;99.90
29413;DHT22;16389;50.126;8.450;2023-04-25T08:20:30;10.70;99.90
29413;DHT22;16389;50.126;8.450;2023-04-25T08:22:56;10.80;99.90
29413;DHT22;16389;50.126;8.450;2023-04-25T08:25:22;11.00;99.90
29413;DHT22;16389;50.126;8.450;2023-04-25T08:27:47;11.30;99.90
29413;DHT22;16389;50.126;8.450;2023-04-25T08:30:13;11.70;99.90
29413;DHT22;16389;50.126;8.450;2023-04-25T08:32:39;11.70;99.90
29413;DHT22;16389;50.126;8.450;2023-04-25T08:35:05;11.80;99.90
29413;DHT22;16389;50.126;8.450;2023-04-25T08:37:32;11.80;99.90
29413;DHT22;16389;50.126;8.450;2023-04-25T08:39:59;11.60;99.90
29413;DHT22;16389;50.126;8.450;2023-04-25T08:42:27;11.60;99.90
29413;DHT22;16389;50.126;8.450;2023-04-25T08:44:53;11.40;99.90
29413;DHT22;16389;50.126;8.450;2023-04-25T08:47:22;11.30;99.90
29413;DHT22;16389;50.126;8.450;2023-04-25T08:49:48;11.10;99.90
29413;DHT22;16389;50.126;8.450;2023-04-25T08:52:22;11.40;99.90
29413;DHT22;16389;50.126;8.450;2023-04-25T08:54:49;11.40;99.90
29413;DHT22;16389;50.126;8.450;2023-04-25T08:57:17;11.70;99.90
29413;DHT22;16389;50.126;8.450;2023-04-25T08:59:44;11.90;99.90
29413;DHT22;16389;50.126;8.450;2023-04-25T09:02:11;12.20;99.90
29413;DHT22;16389;50.126;8.450;2023-04-25T09:04:43;12.60;99.90
29413;DHT22;16389;50.126;8.450;2023-04-25T09:07:09;12.90;99.90
29413;DHT22;16389;50.126;8.450;2023-04-25T09:09:35;12.90;99.90
29413;DHT22;16389;50.126;8.450;2023-04-25T09:12:01;13.10;99.90
29413;DHT22;16389;50.126;8.450;2023-04-25T09:14:27;13.00;99.90
29413;DHT22;16389;50.126;8.450;2023-04-25T09:21:56;13.50;99.90
29413;DHT22;16389;50.126;8.450;2023-04-25T09:24:37;13.60;99.90
29413;DHT22;16389;50.126;8.450;2023-04-25T09:27:06;13.60;99.90
29413;DHT22;16389;50.126;8.450;2023-04-25T09:29:34;13.80;99.90
29413;DHT22;16389;50.126;8.450;2023-04-25T09:34:47;13.60;99.90
29413;DHT22;16389;50.126;8.450;2023-04-25T09:37:21;13.40;99.90
29413;DHT22;16389;50.126;8.450;2023-04-25T09:39:48;13.20;99.90
29413;DHT22;16389;50.126;8.450;2023-04-25T09:42:16;13.20;99.90
29413;DHT22;16389;50.126;8.450;2023-04-25T09:44:46;13.60;99.90
29413;DHT22;16389;50.126;8.450;2023-04-25T09:47:15;13.90;99.90
29413;DHT22;16389;50.126;8.450;2023-04-25T09:49:44;14.60;99.90
29413;DHT22;16389;50.126;8.450;2023-04-25T09:52:18;14.60;99.10
29413;DHT22;16389;50.126;8.450;2023-04-25T09:54:45;14.90;99.90
29413;DHT22;16389;50.126;8.450;2023-04-25T09:59:52;14.30;98.70
29413;DHT22;16389;50.126;8.450;2023-04-25T10:02:20;14.00;99.90
29413;DHT22;16389;50.126;8.450;2023-04-25T10:04:52;13.60;99.90
29413;DHT22;16389;50.126;8.450;2023-04-25T10:07:20;13.40;99.90
29413;DHT22;16389;50.126;8.450;2023-04-25T10:09:49;13.70;99.90
29413;DHT22;16389;50.126;8.450;2023-04-25T10:12:17;14.10;99.90
29413;DHT22;16389;50.126;8.450;2023-04-25T10:14:44;14.50;99.90
29413;DHT22;16389;50.126;8.450;2023-04-25T10:17:10;14.40;97.90
29413;DHT22;16389;50.126;8.450;2023-04-25T10:19:37;14.20;99.90
29413;DHT22;16389;50.126;8.450;2023-04-25T10:22:11;13.80;99.20
29413;DHT22;16389;50.126;8.450;2023-04-25T10:24:39;13.30;98.80
29413;DHT22;16389;50.126;8.450;2023-04-25T10:27:06;13.10;99.90
29413;DHT22;16389;50.126;8.450;2023-04-25T10:29:32;12.90;99.90
29413;DHT22;16389;50.126;8.450;2023-04-25T10:31:58;12.70;99.90
29413;DHT22;16389;50.126;8.450;2023-04-25T10:34:37;12.40;99.90
29413;DHT22;16389;50.126;8.450;2023-04-25T10:37:04;12.30;99.90
29413;DHT22;16389;50.126;8.450;2023-04-25T10:39:29;12.20;99.90
29413;DHT22;16389;50.126;8.450;2023-04-25T10:41:57;12.20;99.90
29413;DHT22;16389;50.126;8.450;2023-04-25T10:44:26;12.40;99.90
29413;DHT22;16389;50.126;8.450;2023-04-25T10:46:54;12.70;99.90
29413;DHT22;16389;50.126;8.450;2023-04-25T10:49:42;12.90;99.90
29413;DHT22;16389;50.126;8.450;2023-04-25T10:52:24;13.20;99.90
29413;DHT22;16389;50.126;8.450;2023-04-25T10:54:57;13.50;99.90
29413;DHT22;16389;50.126;8.450;2023-04-25T10:57:37;13.50;99.50
29413;DHT22;16389;50.126;8.450;2023-04-25T11:02:31;13.80;99.80
29413;DHT22;16389;50.126;8.450;2023-04-25T11:04:56;13.80;99.40
29413;DHT22;16389;50.126;8.450;2023-04-25T11:10:05;13.30;99.90
29413;DHT22;16389;50.126;8.450;2023-04-25T11:12:32;12.90;99.90
29413;DHT22;16389;50.126;8.450;2023-04-25T11:15:06;12.60;99.90
29413;DHT22;16389;50.126;8.450;2023-04-25T11:17:32;12.80;99.90
29413;DHT22;16389;50.126;8.450;2023-04-25T11:19:58;12.80;99.90
29413;DHT22;16389;50.126;8.450;2023-04-25T11:22:26;12.70;99.90
29413;DHT22;16389;50.126;8.450;2023-04-25T11:24:52;12.80;99.90
29413;DHT22;16389;50.126;8.450;2023-04-25T11:27:18;13.00;99.90
29413;DHT22;16389;50.126;8.450;2023-04-25T11:29:44;13.10;99.20
29413;DHT22;16389;50.126;8.450;2023-04-25T11:32:11;13.20;99.20
29413;DHT22;16389;50.126;8.450;2023-04-25T11:34:37;13.20;98.20
29413;DHT22;16389;50.126;8.450;2023-04-25T11:37:03;13.40;98.10
29413;DHT22;16389;50.126;8.450;2023-04-25T11:39:29;13.50;98.20
29413;DHT22;16389;50.126;8.450;2023-04-25T11:41:55;13.40;99.30
29413;DHT22;16389;50.126;8.450;2023-04-25T11:44:21;13.40;99.30
29413;DHT22;16389;50.126;8.450;2023-04-25T11:46:47;13.60;98.20
29413;DHT22;16389;50.126;8.450;2023-04-25T11:49:13;13.80;98.40
29413;DHT22;16389;50.126;8.450;2023-04-25T11:51:40;14.10;97.50
29413;DHT22;16389;50.126;8.450;2023-04-25T11:54:06;14.30;96.60
29413;DHT22;16389;50.126;8.450;2023-04-25T11:56:32;14.60;96.90
29413;DHT22;16389;50.126;8.450;2023-04-25T11:59:03;14.80;95.50
29413;DHT22;16389;50.126;8.450;2023-04-25T12:01:31;15.10;95.10
29413;DHT22;16389;50.126;8.450;2023-04-25T12:03:58;15.20;94.10
29413;DHT22;16389;50.126;8.450;2023-04-25T12:06:28;14.90;93.80
29413;DHT22;16389;50.126;8.450;2023-04-25T12:09:08;14.50;94.10
29413;DHT22;16389;50.126;8.450;2023-04-25T12:11:48;14.40;94.20
29413;DHT22;16389;50.126;8.450;2023-04-25T12:14:29;14.20;95.20
29413;DHT22;16389;50.126;8.450;2023-04-25T12:16:56;13.90;96.00
29413;DHT22;16389;50.126;8.450;2023-04-25T12:19:23;13.90;95.30
29413;DHT22;16389;50.126;8.450;2023-04-25T12:21:49;13.80;96.00
29413;DHT22;16389;50.126;8.450;2023-04-25T12:24:23;13.40;96.70
29413;DHT22;16389;50.126;8.450;2023-04-25T12:26:54;13.40;97.20
29413;DHT22;16389;50.126;8.450;2023-04-25T12:29:25;13.50;97.90
29413;DHT22;16389;50.126;8.450;2023-04-25T12:31:51;13.60;96.40
29413;DHT22;16389;50.126;8.450;2023-04-25T12:34:18;13.80;96.70
29413;DHT22;16389;50.126;8.450;2023-04-25T12:36:44;13.80;96.30
29413;DHT22;16389;50.126;8.450;2023-04-25T12:39:21;13.70;95.80
29413;DHT22;16389;50.126;8.450;2023-04-25T12:41:48;13.70;96.20
29413;DHT22;16389;50.126;8.450;2023-04-25T12:44:13;13.70;96.10
29413;DHT22;16389;50.126;8.450;2023-04-25T12:46:40;13.80;96.30
29413;DHT22;16389;50.126;8.450;2023-04-25T12:49:07;13.90;95.70
29413;DHT22;16389;50.126;8.450;2023-04-25T12:51:34;14.20;95.60
29413;DHT22;16389;50.126;8.450;2023-04-25T12:54:00;15.70;94.50
29413;DHT22;16389;50.126;8.450;2023-04-25T12:56:27;16.30;93.10
29413;DHT22;16389;50.126;8.450;2023-04-25T12:58:53;16.30;91.00
29413;DHT22;16389;50.126;8.450;2023-04-25T13:01:22;15.70;91.20
29413;DHT22;16389;50.126;8.450;2023-04-25T13:03:48;15.50;91.20
29413;DHT22;16389;50.126;8.450;2023-04-25T13:06:15;15.20;91.90
29413;DHT22;16389;50.126;8.450;2023-04-25T13:08:41;14.90;91.10
29413;DHT22;16389;50.126;8.450;2023-04-25T13:11:07;14.80;91.60
29413;DHT22;16389;50.126;8.450;2023-04-25T13:13:33;14.70;91.20
29413;DHT22;16389;50.126;8.450;2023-04-25T13:16:06;14.40;92.10
29413;DHT22;16389;50.126;8.450;2023-04-25T13:18:32;14.10;91.40
29413;DHT22;16389;50.126;8.450;2023-04-25T13:20:59;13.90;93.50
29413;DHT22;16389;50.126;8.450;2023-04-25T13:23:27;13.40;93.50
29413;DHT22;16389;50.126;8.450;2023-04-25T13:25:54;13.30;93.40
29413;DHT22;16389;50.126;8.450;2023-04-25T13:28:20;13.20;94.20
29413;DHT22;16389;50.126;8.450;2023-04-25T13:30:46;13.80;94.90
29413;DHT22;16389;50.126;8.450;2023-04-25T13:33:14;14.30;93.40
29413;DHT22;16389;50.126;8.450;2023-04-25T13:35:40;14.40;92.80
29413;DHT22;16389;50.126;8.450;2023-04-25T13:38:06;14.70;92.10
29413;DHT22;16389;50.126;8.450;2023-04-25T13:40:32;14.60;92.40
29413;DHT22;16389;50.126;8.450;2023-04-25T13:42:58;14.90;91.50
29413;DHT22;16389;50.126;8.450;2023-04-25T13:45:24;15.70;91.00
29413;DHT22;16389;50.126;8.450;2023-04-25T13:47:50;16.50;90.10
29413;DHT22;16389;50.126;8.450;2023-04-25T13:50:16;18.60;87.50
29413;DHT22;16389;50.126;8.450;2023-04-25T13:52:42;19.90;80.10
29413;DHT22;16389;50.126;8.450;2023-04-25T13:55:09;19.60;75.50
29413;DHT22;16389;50.126;8.450;2023-04-25T13:57:36;19.00;77.50
29413;DHT22;16389;50.126;8.450;2023-04-25T14:00:04;18.80;74.30
29413;DHT22;16389;50.126;8.450;2023-04-25T14:02:34;19.40;76.60
29413;DHT22;16389;50.126;8.450;2023-04-25T14:05:00;20.00;74.20
29413;DHT22;16389;50.126;8.450;2023-04-25T14:07:26;19.40;73.00
29413;DHT22;16389;50.126;8.450;2023-04-25T14:09:52;21.70;71.70
29413;DHT22;16389;50.126;8.450;2023-04-25T14:12:18;23.00;67.90
29413;DHT22;16389;50.126;8.450;2023-04-25T14:14:43;22.50;63.00
29413;DHT22;16389;50.126;8.450;2023-04-25T14:17:09;21.60;64.80
29413;DHT22;16389;50.126;8.450;2023-04-25T14:19:35;19.90;64.20
29413;DHT22;16389;50.126;8.450;2023-04-25T14:22:01;18.80;66.80
29413;DHT22;16389;50.126;8.450;2023-04-25T14:24:26;17.20;71.20
29413;DHT22;16389;50.126;8.450;2023-04-25T14:26:52;16.40;73.70
29413;DHT22;16389;50.126;8.450;2023-04-25T14:29:17;15.50;75.00
29413;DHT22;16389;50.126;8.450;2023-04-25T14:31:43;14.80;79.70
29413;DHT22;16389;50.126;8.450;2023-04-25T14:34:10;14.90;80.20
29413;DHT22;16389;50.126;8.450;2023-04-25T14:36:36;14.70;82.20
29413;DHT22;16389;50.126;8.450;2023-04-25T14:39:02;14.20;81.40
29413;DHT22;16389;50.126;8.450;2023-04-25T14:41:30;14.00;82.30
29413;DHT22;16389;50.126;8.450;2023-04-25T14:43:55;13.60;83.50
29413;DHT22;16389;50.126;8.450;2023-04-25T14:46:22;13.40;86.60
29413;DHT22;16389;50.126;8.450;2023-04-25T14:48:48;13.30;86.30
29413;DHT22;16389;50.126;8.450;2023-04-25T14:51:14;12.90;85.00
29413;DHT22;16389;50.126;8.450;2023-04-25T14:53:40;12.90;88.00
29413;DHT22;16389;50.126;8.450;2023-04-25T14:56:06;12.90;88.90
29413;DHT22;16389;50.126;8.450;2023-04-25T14:58:32;12.80;88.40
29413;DHT22;16389;50.126;8.450;2023-04-25T15:00:59;12.80;88.60
29413;DHT22;16389;50.126;8.450;2023-04-25T15:03:24;12.80;89.30
29413;DHT22;16389;50.126;8.450;2023-04-25T15:05:50;12.70;90.00
29413;DHT22;16389;50.126;8.450;2023-04-25T15:08:16;12.60;91.00
29413;DHT22;16389;50.126;8.450;2023-04-25T15:10:42;12.70;90.90
29413;DHT22;16389;50.126;8.450;2023-04-25T15:13:07;12.70;90.40
29413;DHT22;16389;50.126;8.450;2023-04-25T15:15:33;12.70;90.80
29413;DHT22;16389;50.126;8.450;2023-04-25T15:18:00;16.20;90.10
29413;DHT22;16389;50.126;8.450;2023-04-25T15:20:26;18.20;82.20
29413;DHT22;16389;50.126;8.450;2023-04-25T15:22:53;19.30;73.90
29413;DHT22;16389;50.126;8.450;2023-04-25T15:25:18;20.20;73.00
29413;DHT22;16389;50.126;8.450;2023-04-25T15:27:45;20.50;69.70
29413;DHT22;16389;50.126;8.450;2023-04-25T15:30:23;19.70;68.20
29413;DHT22;16389;50.126;8.450;2023-04-25T15:32:54;19.30;69.20
29413;DHT22;16389;50.126;8.450;2023-04-25T15:35:20;18.60;68.60
29413;DHT22;16389;50.126;8.450;2023-04-25T15:37:48;17.80;72.00
29413;DHT22;16389;50.126;8.450;2023-04-25T15:40:16;17.80;69.80
29413;DHT22;16389;50.126;8.450;2023-04-25T15:42:45;17.40;70.60
29413;DHT22;16389;50.126;8.450;2023-04-25T15:45:21;16.90;70.00
29413;DHT22;16389;50.126;8.450;2023-04-25T15:47:49;16.40;71.30
29413;DHT22;16389;50.126;8.450;2023-04-25T15:50:15;16.40;71.50